Nearby METAR Reports

 

KSJC - San Jose, California, USA
Distance from station: NE 14km
Updated: 18/01/2019 08:53
Overcast
Overcast
 Wind from S
Wind: S 6 km/h
Temperature: 12°C
Dew Point: 9°C
Humidity: 82%
Barometer: 1027.1 hPa
Clouds: Overcast
Visibility: 16 km
Cloud details: Partly cloudy 1829 m
Mostly cloudy 2286 m
Overcast 2743 m
2019/01/18 16:53 KSJC 181653Z 19003KT 10SM SCT060 BKN075 OVC090 12/09 A3033 RMK AO2 SLP270 T01220094
KNUQ - Moffett Nas/Mtn, California, USA
Distance from station: N 14km
Updated: 18/01/2019 08:56
Overcast
Overcast
 Wind from calm
Wind: Calm
Temperature: 13°C
Dew Point: 9°C
Humidity: 77%
Barometer: 1027.1 hPa
Clouds: Overcast
Visibility: 16 km
Cloud details: Overcast 2286 m
2019/01/18 16:56 KNUQ 181656Z 00000KT 10SM OVC075 13/09 A3033 RMK AO2 SLP273 T01280089
 
KPAO - Palo Alto, California, USA
Distance from station: NNW 23km
Updated: 18/01/2019 08:47
Mostly cloudy
Mostly cloudy
 Wind from calm
Wind: Calm
Temperature: 12°C
Dew Point: 10°C
Humidity: 88%
Barometer: 1027.4 hPa
Clouds: Mostly cloudy
Visibility: 16 km
Cloud details: Mostly cloudy 2134 m
2019/01/18 16:47 KPAO 181647Z 00000KT 10SM BKN070 12/10 A3034
KRHV - San Jose/Reid, California, USA
Distance from station: ENE 19km
Updated: 16/01/2019 15:50
NOT Current
Overcast
Overcast
 Wind from SE
Wind: SE 33 km/h
Temperature: 15°C
Dew Point: 12°C
Humidity: 82%
Barometer: 1010.2 hPa
Clouds: Overcast
Visibility: 3 km
Cloud details: Few Clouds 610 m
Mostly cloudy 1219 m
Overcast 2438 m
2019/01/16 23:50 KRHV 162350Z 13018KT 2SM FEW020 BKN040 OVC080 15/12 A2983 RA
 
KOAK - Oakland, California, USA
Distance from station: NNW 50km
Updated: 18/01/2019 08:53
Overcast
Overcast
 Wind from calm
Wind: Calm
Temperature: 13°C
Dew Point: 11°C
Humidity: 88%
Barometer: 1027.1 hPa
Clouds: Overcast
Visibility: 16 km
Cloud details: Overcast 1981 m
2019/01/18 16:53 KOAK 181653Z 00000KT 10SM OVC065 13/11 A3033 RMK AO2 SLP270 T01280106
KSQL - San Carlos Airpo, California, USA
Distance from station: NW 34km
Updated: 18/01/2019 08:50
Haze, Mostly cloudy
Haze, Mostly cloudy
 Wind from calm
Wind: Calm
Temperature: 12°C
Dew Point: 10°C
Humidity: 88%
Barometer: 1026.8 hPa
Summary: Haze
Clouds: Mostly cloudy
Visibility: 11 km
Cloud details: Mostly cloudy 1829 m
2019/01/18 16:50 KSQL 181650Z 00000KT 7SM HZ BKN060 12/10 A3032
 
KSFO - San Francisco, California, USA
Distance from station: NW 49km
Updated: 18/01/2019 08:56
Overcast
Overcast
 Wind from E
Wind: E 6 km/h
Temperature: 14°C
Dew Point: 9°C
Humidity: 72%
Barometer: 1026.8 hPa
Clouds: Overcast
Visibility: 16 km
Cloud details: Overcast 1981 m
2019/01/18 16:56 KSFO 181656Z 08003KT 10SM OVC065 14/09 A3032 RMK AO2 SLP266 T01390089
KE16 - San Martin, California, USA
Distance from station: ESE 43km
Updated: 18/01/2019 08:50
Mist, Overcast
Mist, Overcast
 Wind from WSW
Wind: WSW 6 km/h
Temperature: 12°C
Dew Point: 10°C
Humidity: 88%
Barometer: 1027.8 hPa
Summary: Mist
Clouds: Overcast
Visibility: 10 km
Cloud details: Overcast 2286 m
2019/01/18 16:50 KE16 181650Z AUTO 25003KT 6SM BR OVC075 12/10 A3035 RMK AO2 PWINO PNO
 
KWVI - Watsonville, California, USA
Distance from station: SSE 44km
Updated: 18/01/2019 08:53
Overcast
Overcast
 Wind from calm
Wind: Calm
Temperature: 12°C
Dew Point: 10°C
Humidity: 88%
Barometer: 1027.1 hPa
Clouds: Overcast
Visibility: 16 km
Cloud details: Overcast 2134 m
2019/01/18 16:53 KWVI 181653Z AUTO 00000KT 10SM OVC070 12/10 A3033 RMK AO2 SLP270 T01220100
KHAF - Half Moon Bay, California, USA
Distance from station: WNW 50km
Updated: 18/01/2019 08:55
Mist, Overcast
Mist, Overcast
 Wind from calm
Wind: Calm
Temperature: 12°C
Dew Point: 10°C
Humidity: 88%
Barometer: 1026.8 hPa
Summary: Mist
Clouds: Overcast
Visibility: 8 km
Cloud details: Overcast 1981 m
2019/01/18 16:55 KHAF 181655Z AUTO 00000KT 5SM BR OVC065 12/10 A3032 RMK AO2
 
KHWD - Hayward, California, USA
Distance from station: N 44km
Updated: 18/01/2019 08:54
Overcast
Overcast
 Wind from NE
Wind: NE 6 km/h
Temperature: 13°C
Dew Point: 10°C
Humidity: 82%
Barometer: 1026.8 hPa
Clouds: Overcast
Visibility: 16 km
Cloud details: Overcast 2134 m
2019/01/18 16:54 KHWD 181654Z 05003KT 10SM OVC070 13/10 A3032 RMK AO2 SLP278 T01330100
KLVK - Livermore, California, USA
Distance from station: NNE 51km
Updated: 18/01/2019 08:53
Partly cloudy
Partly cloudy
 Wind from calm
Wind: Calm
Temperature: 11°C
Dew Point: 9°C
Humidity: 88%
Barometer: 1027.1 hPa
Clouds: Partly cloudy
Visibility: 11 km
Cloud details: Partly cloudy 2438 m
2019/01/18 16:53 KLVK 181653Z 00000KT 7SM SCT080 11/09 A3033 RMK AO2 SLP269 T01060089